sensor_id;sensor_type;location;lat;lon;timestamp;P1;durP1;ratioP1;P2;durP2;ratioP2
1164;SDS011;571;50.930;6.926;2023-01-28T03:46:06;11.23;;;8.73;;
1164;SDS011;571;50.930;6.926;2023-01-28T03:48:33;8.63;;;6.87;;
1164;SDS011;571;50.930;6.926;2023-01-28T03:50:59;8.50;;;7.60;;
1164;SDS011;571;50.930;6.926;2023-01-28T03:53:26;9.20;;;7.50;;
1164;SDS011;571;50.930;6.926;2023-01-28T03:55:53;9.63;;;7.43;;
1164;SDS011;571;50.930;6.926;2023-01-28T03:58:20;13.23;;;7.57;;
1164;SDS011;571;50.930;6.926;2023-01-28T04:00:51;8.87;;;8.03;;
1164;SDS011;571;50.930;6.926;2023-01-28T04:03:19;13.60;;;8.30;;
1164;SDS011;571;50.930;6.926;2023-01-28T04:05:56;9.47;;;8.50;;
1164;SDS011;571;50.930;6.926;2023-01-28T04:08:24;9.50;;;7.63;;
1164;SDS011;571;50.930;6.926;2023-01-28T04:10:50;10.60;;;7.80;;
1164;SDS011;571;50.930;6.926;2023-01-28T04:13:17;9.60;;;8.50;;
1164;SDS011;571;50.930;6.926;2023-01-28T04:15:44;8.67;;;7.77;;
1164;SDS011;571;50.930;6.926;2023-01-28T04:18:11;9.73;;;8.03;;
1164;SDS011;571;50.930;6.926;2023-01-28T04:20:39;15.33;;;8.40;;
1164;SDS011;571;50.930;6.926;2023-01-28T04:23:07;10.50;;;7.90;;
1164;SDS011;571;50.930;6.926;2023-01-28T04:25:35;10.50;;;8.20;;
1164;SDS011;571;50.930;6.926;2023-01-28T04:28:01;11.73;;;8.20;;
1164;SDS011;571;50.930;6.926;2023-01-28T04:30:28;9.07;;;7.30;;
1164;SDS011;571;50.930;6.926;2023-01-28T04:32:55;8.53;;;7.47;;
1164;SDS011;571;50.930;6.926;2023-01-28T04:35:22;12.17;;;8.27;;
1164;SDS011;571;50.930;6.926;2023-01-28T04:37:50;9.23;;;8.07;;
1164;SDS011;571;50.930;6.926;2023-01-28T04:40:17;9.57;;;8.60;;
1164;SDS011;571;50.930;6.926;2023-01-28T04:42:51;9.23;;;8.33;;
1164;SDS011;571;50.930;6.926;2023-01-28T04:45:18;8.83;;;7.87;;
1164;SDS011;571;50.930;6.926;2023-01-28T04:47:45;9.97;;;8.63;;
1164;SDS011;571;50.930;6.926;2023-01-28T04:50:12;8.60;;;7.67;;
1164;SDS011;571;50.930;6.926;2023-01-28T04:52:39;10.87;;;7.90;;
1164;SDS011;571;50.930;6.926;2023-01-28T04:55:07;10.40;;;8.90;;
1164;SDS011;571;50.930;6.926;2023-01-28T04:57:35;9.80;;;8.80;;
1164;SDS011;571;50.930;6.926;2023-01-28T05:00:02;10.47;;;8.33;;
1164;SDS011;571;50.930;6.926;2023-01-28T05:02:29;8.73;;;7.93;;
1164;SDS011;571;50.930;6.926;2023-01-28T05:04:56;8.50;;;7.43;;
1164;SDS011;571;50.930;6.926;2023-01-28T05:07:25;9.50;;;7.43;;
1164;SDS011;571;50.930;6.926;2023-01-28T05:09:52;9.13;;;7.83;;
1164;SDS011;571;50.930;6.926;2023-01-28T05:12:20;8.13;;;7.40;;
1164;SDS011;571;50.930;6.926;2023-01-28T05:14:46;7.00;;;6.30;;
1164;SDS011;571;50.930;6.926;2023-01-28T05:17:13;7.23;;;6.53;;
1164;SDS011;571;50.930;6.926;2023-01-28T05:19:40;8.00;;;7.30;;
1164;SDS011;571;50.930;6.926;2023-01-28T05:22:07;7.93;;;6.33;;
1164;SDS011;571;50.930;6.926;2023-01-28T05:24:34;8.10;;;7.30;;
1164;SDS011;571;50.930;6.926;2023-01-28T05:27:00;8.43;;;7.20;;
1164;SDS011;571;50.930;6.926;2023-01-28T05:29:28;9.33;;;8.40;;
1164;SDS011;571;50.930;6.926;2023-01-28T05:31:55;8.73;;;7.10;;
1164;SDS011;571;50.930;6.926;2023-01-28T05:34:22;7.80;;;6.97;;
1164;SDS011;571;50.930;6.926;2023-01-28T05:36:49;8.63;;;6.80;;
1164;SDS011;571;50.930;6.926;2023-01-28T05:39:15;7.00;;;6.30;;
1164;SDS011;571;50.930;6.926;2023-01-28T05:41:42;6.93;;;6.33;;
1164;SDS011;571;50.930;6.926;2023-01-28T05:44:09;6.77;;;6.27;;
1164;SDS011;571;50.930;6.926;2023-01-28T05:46:37;7.40;;;6.80;;
1164;SDS011;571;50.930;6.926;2023-01-28T05:49:09;8.00;;;7.27;;
1164;SDS011;571;50.930;6.926;2023-01-28T05:51:37;7.93;;;6.50;;
1164;SDS011;571;50.930;6.926;2023-01-28T05:54:04;10.17;;;7.20;;
1164;SDS011;571;50.930;6.926;2023-01-28T05:56:31;6.70;;;5.80;;
1164;SDS011;571;50.930;6.926;2023-01-28T05:58:59;6.83;;;6.13;;
1164;SDS011;571;50.930;6.926;2023-01-28T06:01:25;7.77;;;6.37;;
1164;SDS011;571;50.930;6.926;2023-01-28T06:03:53;8.33;;;6.27;;
1164;SDS011;571;50.930;6.926;2023-01-28T06:06:20;7.70;;;5.87;;
1164;SDS011;571;50.930;6.926;2023-01-28T06:08:47;8.53;;;7.10;;
1164;SDS011;571;50.930;6.926;2023-01-28T06:11:14;7.80;;;7.00;;
1164;SDS011;571;50.930;6.926;2023-01-28T06:13:40;6.97;;;6.27;;
1164;SDS011;571;50.930;6.926;2023-01-28T06:16:07;7.87;;;6.30;;
1164;SDS011;571;50.930;6.926;2023-01-28T06:18:34;8.63;;;6.67;;
1164;SDS011;571;50.930;6.926;2023-01-28T06:21:02;7.60;;;6.67;;
1164;SDS011;571;50.930;6.926;2023-01-28T06:23:29;9.87;;;7.10;;
1164;SDS011;571;50.930;6.926;2023-01-28T06:25:56;8.90;;;7.10;;
1164;SDS011;571;50.930;6.926;2023-01-28T06:28:22;7.33;;;6.70;;
1164;SDS011;571;50.930;6.926;2023-01-28T06:30:50;7.10;;;6.50;;
1164;SDS011;571;50.930;6.926;2023-01-28T06:33:17;7.40;;;6.43;;
1164;SDS011;571;50.930;6.926;2023-01-28T06:35:45;7.07;;;6.37;;
1164;SDS011;571;50.930;6.926;2023-01-28T06:38:13;9.50;;;8.07;;
1164;SDS011;571;50.930;6.926;2023-01-28T06:40:40;8.83;;;7.90;;
1164;SDS011;571;50.930;6.926;2023-01-28T06:43:07;7.47;;;6.77;;
1164;SDS011;571;50.930;6.926;2023-01-28T06:45:33;8.53;;;7.27;;
1164;SDS011;571;50.930;6.926;2023-01-28T06:48:00;9.93;;;7.50;;
1164;SDS011;571;50.930;6.926;2023-01-28T06:50:27;11.30;;;7.43;;
1164;SDS011;571;50.930;6.926;2023-01-28T06:52:53;8.60;;;7.80;;
1164;SDS011;571;50.930;6.926;2023-01-28T06:55:21;13.43;;;7.23;;
1164;SDS011;571;50.930;6.926;2023-01-28T06:57:48;11.10;;;7.60;;
1164;SDS011;571;50.930;6.926;2023-01-28T07:00:15;11.10;;;8.90;;
1164;SDS011;571;50.930;6.926;2023-01-28T07:02:43;11.07;;;8.10;;
1164;SDS011;571;50.930;6.926;2023-01-28T07:05:10;13.33;;;10.07;;
1164;SDS011;571;50.930;6.926;2023-01-28T07:07:37;13.90;;;10.90;;
1164;SDS011;571;50.930;6.926;2023-01-28T07:10:04;14.93;;;12.17;;
1164;SDS011;571;50.930;6.926;2023-01-28T07:12:33;12.23;;;10.97;;
1164;SDS011;571;50.930;6.926;2023-01-28T07:14:59;12.67;;;11.37;;
1164;SDS011;571;50.930;6.926;2023-01-28T07:17:26;12.17;;;10.40;;
1164;SDS011;571;50.930;6.926;2023-01-28T07:19:53;15.10;;;10.47;;
1164;SDS011;571;50.930;6.926;2023-01-28T07:22:22;17.27;;;12.80;;
1164;SDS011;571;50.930;6.926;2023-01-28T07:24:49;17.67;;;13.23;;
1164;SDS011;571;50.930;6.926;2023-01-28T07:27:16;18.07;;;13.57;;
1164;SDS011;571;50.930;6.926;2023-01-28T07:29:45;19.53;;;13.50;;
1164;SDS011;571;50.930;6.926;2023-01-28T07:32:12;17.57;;;12.67;;
1164;SDS011;571;50.930;6.926;2023-01-28T07:34:38;16.50;;;14.20;;
1164;SDS011;571;50.930;6.926;2023-01-28T07:37:07;17.07;;;11.87;;
1164;SDS011;571;50.930;6.926;2023-01-28T07:39:33;15.17;;;11.80;;
1164;SDS011;571;50.930;6.926;2023-01-28T07:42:00;16.07;;;12.40;;
1164;SDS011;571;50.930;6.926;2023-01-28T07:44:27;13.20;;;11.73;;
1164;SDS011;571;50.930;6.926;2023-01-28T07:46:55;18.03;;;12.67;;
1164;SDS011;571;50.930;6.926;2023-01-28T07:49:22;15.50;;;12.70;;
1164;SDS011;571;50.930;6.926;2023-01-28T07:51:49;14.00;;;11.33;;
1164;SDS011;571;50.930;6.926;2023-01-28T07:54:15;15.20;;;11.93;;
1164;SDS011;571;50.930;6.926;2023-01-28T07:56:42;16.27;;;12.23;;
1164;SDS011;571;50.930;6.926;2023-01-28T07:59:09;16.60;;;13.17;;
1164;SDS011;571;50.930;6.926;2023-01-28T08:01:35;16.43;;;12.73;;
1164;SDS011;571;50.930;6.926;2023-01-28T08:04:04;15.33;;;11.83;;
1164;SDS011;571;50.930;6.926;2023-01-28T08:06:30;17.57;;;12.60;;
1164;SDS011;571;50.930;6.926;2023-01-28T08:09:01;16.17;;;12.03;;
1164;SDS011;571;50.930;6.926;2023-01-28T08:11:30;12.33;;;9.47;;
1164;SDS011;571;50.930;6.926;2023-01-28T08:13:56;14.53;;;9.90;;
1164;SDS011;571;50.930;6.926;2023-01-28T08:16:24;13.93;;;10.67;;
1164;SDS011;571;50.930;6.926;2023-01-28T08:18:51;13.60;;;10.70;;
1164;SDS011;571;50.930;6.926;2023-01-28T08:21:19;11.40;;;9.57;;
1164;SDS011;571;50.930;6.926;2023-01-28T08:23:46;10.50;;;8.60;;
1164;SDS011;571;50.930;6.926;2023-01-28T08:26:13;12.27;;;10.10;;
1164;SDS011;571;50.930;6.926;2023-01-28T08:28:40;11.40;;;10.30;;
1164;SDS011;571;50.930;6.926;2023-01-28T08:31:06;10.00;;;8.90;;
1164;SDS011;571;50.930;6.926;2023-01-28T08:33:33;16.23;;;11.33;;
1164;SDS011;571;50.930;6.926;2023-01-28T08:36:01;13.97;;;10.80;;
1164;SDS011;571;50.930;6.926;2023-01-28T08:38:30;11.77;;;10.20;;
1164;SDS011;571;50.930;6.926;2023-01-28T08:40:57;13.33;;;11.90;;
1164;SDS011;571;50.930;6.926;2023-01-28T08:43:24;12.03;;;10.83;;
1164;SDS011;571;50.930;6.926;2023-01-28T08:45:50;11.27;;;10.07;;
1164;SDS011;571;50.930;6.926;2023-01-28T08:48:17;10.30;;;9.20;;
1164;SDS011;571;50.930;6.926;2023-01-28T08:50:45;12.40;;;10.40;;
1164;SDS011;571;50.930;6.926;2023-01-28T08:53:13;15.83;;;11.70;;
1164;SDS011;571;50.930;6.926;2023-01-28T08:55:42;12.37;;;10.97;;
1164;SDS011;571;50.930;6.926;2023-01-28T08:58:10;11.40;;;9.47;;
1164;SDS011;571;50.930;6.926;2023-01-28T09:00:39;13.87;;;10.80;;
1164;SDS011;571;50.930;6.926;2023-01-28T09:03:06;12.60;;;11.27;;
1164;SDS011;571;50.930;6.926;2023-01-28T09:05:33;15.00;;;11.60;;
1164;SDS011;571;50.930;6.926;2023-01-28T09:08:00;10.63;;;9.63;;
1164;SDS011;571;50.930;6.926;2023-01-28T09:10:27;11.83;;;9.83;;
1164;SDS011;571;50.930;6.926;2023-01-28T09:12:55;10.07;;;8.87;;
1164;SDS011;571;50.930;6.926;2023-01-28T09:15:22;9.93;;;8.43;;
1164;SDS011;571;50.930;6.926;2023-01-28T09:17:49;10.53;;;9.43;;
1164;SDS011;571;50.930;6.926;2023-01-28T09:20:21;13.67;;;9.30;;
1164;SDS011;571;50.930;6.926;2023-01-28T09:22:48;13.57;;;9.73;;
1164;SDS011;571;50.930;6.926;2023-01-28T09:25:15;13.23;;;10.20;;
1164;SDS011;571;50.930;6.926;2023-01-28T09:27:41;10.20;;;8.47;;
1164;SDS011;571;50.930;6.926;2023-01-28T09:30:10;10.50;;;8.47;;
1164;SDS011;571;50.930;6.926;2023-01-28T09:32:38;14.33;;;9.00;;
1164;SDS011;571;50.930;6.926;2023-01-28T09:35:04;14.17;;;9.23;;
1164;SDS011;571;50.930;6.926;2023-01-28T09:37:31;10.67;;;9.10;;
1164;SDS011;571;50.930;6.926;2023-01-28T09:39:58;10.20;;;8.40;;
1164;SDS011;571;50.930;6.926;2023-01-28T09:42:32;10.83;;;9.33;;
1164;SDS011;571;50.930;6.926;2023-01-28T09:45:14;10.83;;;9.73;;
1164;SDS011;571;50.930;6.926;2023-01-28T09:47:45;10.37;;;8.87;;
1164;SDS011;571;50.930;6.926;2023-01-28T09:50:15;10.07;;;9.00;;
1164;SDS011;571;50.930;6.926;2023-01-28T09:52:45;9.17;;;8.17;;
1164;SDS011;571;50.930;6.926;2023-01-28T09:55:14;11.23;;;7.87;;
1164;SDS011;571;50.930;6.926;2023-01-28T09:57:49;10.47;;;9.40;;
1164;SDS011;571;50.930;6.926;2023-01-28T10:00:21;13.60;;;8.47;;
1164;SDS011;571;50.930;6.926;2023-01-28T10:05:43;9.50;;;8.60;;
1164;SDS011;571;50.930;6.926;2023-01-28T10:08:23;12.00;;;8.80;;
1164;SDS011;571;50.930;6.926;2023-01-28T10:11:06;16.40;;;13.93;;
1164;SDS011;571;50.930;6.926;2023-01-28T10:13:42;19.80;;;14.80;;
1164;SDS011;571;50.930;6.926;2023-01-28T10:16:18;23.10;;;17.20;;
1164;SDS011;571;50.930;6.926;2023-01-28T10:18:51;19.97;;;16.07;;
1164;SDS011;571;50.930;6.926;2023-01-28T10:21:23;19.80;;;16.27;;
1164;SDS011;571;50.930;6.926;2023-01-28T10:23:57;22.70;;;13.97;;
1164;SDS011;571;50.930;6.926;2023-01-28T10:26:29;20.10;;;16.40;;
1164;SDS011;571;50.930;6.926;2023-01-28T10:28:59;20.60;;;16.20;;
1164;SDS011;571;50.930;6.926;2023-01-28T10:31:33;22.03;;;17.50;;
1164;SDS011;571;50.930;6.926;2023-01-28T10:34:04;21.53;;;15.57;;
1164;SDS011;571;50.930;6.926;2023-01-28T10:36:31;21.97;;;16.77;;
1164;SDS011;571;50.930;6.926;2023-01-28T10:38:59;19.50;;;14.93;;
1164;SDS011;571;50.930;6.926;2023-01-28T10:41:26;23.33;;;16.93;;
1164;SDS011;571;50.930;6.926;2023-01-28T10:43:52;18.70;;;15.07;;
1164;SDS011;571;50.930;6.926;2023-01-28T10:46:22;20.27;;;17.03;;
1164;SDS011;571;50.930;6.926;2023-01-28T10:51:53;20.60;;;15.37;;
1164;SDS011;571;50.930;6.926;2023-01-28T10:54:23;20.27;;;15.67;;
1164;SDS011;571;50.930;6.926;2023-01-28T10:56:53;19.63;;;15.87;;
1164;SDS011;571;50.930;6.926;2023-01-28T10:59:24;17.77;;;15.47;;
1164;SDS011;571;50.930;6.926;2023-01-28T11:01:53;24.17;;;16.20;;
1164;SDS011;571;50.930;6.926;2023-01-28T11:04:25;20.13;;;15.50;;
1164;SDS011;571;50.930;6.926;2023-01-28T11:06:55;18.60;;;16.13;;
1164;SDS011;571;50.930;6.926;2023-01-28T11:09:25;17.07;;;15.03;;
1164;SDS011;571;50.930;6.926;2023-01-28T11:11:55;22.37;;;15.43;;
1164;SDS011;571;50.930;6.926;2023-01-28T11:14:23;17.80;;;15.20;;
1164;SDS011;571;50.930;6.926;2023-01-28T11:16:52;19.80;;;14.97;;
1164;SDS011;571;50.930;6.926;2023-01-28T11:19:22;17.40;;;14.17;;
1164;SDS011;571;50.930;6.926;2023-01-28T11:21:56;15.07;;;13.27;;
1164;SDS011;571;50.930;6.926;2023-01-28T11:24:29;17.40;;;14.37;;
1164;SDS011;571;50.930;6.926;2023-01-28T11:26:59;19.50;;;14.20;;
1164;SDS011;571;50.930;6.926;2023-01-28T11:29:38;18.23;;;14.90;;
1164;SDS011;571;50.930;6.926;2023-01-28T11:32:07;17.47;;;14.43;;
1164;SDS011;571;50.930;6.926;2023-01-28T11:34:54;21.23;;;16.60;;
1164;SDS011;571;50.930;6.926;2023-01-28T11:37:24;19.00;;;14.30;;
1164;SDS011;571;50.930;6.926;2023-01-28T11:40:02;20.00;;;15.37;;
1164;SDS011;571;50.930;6.926;2023-01-28T11:42:40;20.70;;;14.70;;
1164;SDS011;571;50.930;6.926;2023-01-28T11:45:08;16.80;;;15.00;;
1164;SDS011;571;50.930;6.926;2023-01-28T11:47:47;19.30;;;15.70;;
1164;SDS011;571;50.930;6.926;2023-01-28T11:50:40;16.33;;;12.77;;
1164;SDS011;571;50.930;6.926;2023-01-28T11:53:16;19.73;;;14.20;;
1164;SDS011;571;50.930;6.926;2023-01-28T11:58:59;19.10;;;15.27;;
1164;SDS011;571;50.930;6.926;2023-01-28T12:01:45;17.97;;;14.63;;
1164;SDS011;571;50.930;6.926;2023-01-28T12:04:21;17.50;;;14.10;;
1164;SDS011;571;50.930;6.926;2023-01-28T12:07:00;14.77;;;13.17;;
1164;SDS011;571;50.930;6.926;2023-01-28T12:09:42;20.73;;;13.63;;
1164;SDS011;571;50.930;6.926;2023-01-28T12:12:18;16.13;;;13.47;;
1164;SDS011;571;50.930;6.926;2023-01-28T12:15:11;15.13;;;13.43;;
1164;SDS011;571;50.930;6.926;2023-01-28T12:17:53;16.10;;;14.47;;
1164;SDS011;571;50.930;6.926;2023-01-28T12:20:32;18.17;;;14.83;;
1164;SDS011;571;50.930;6.926;2023-01-28T12:23:19;15.90;;;13.57;;
1164;SDS011;571;50.930;6.926;2023-01-28T12:26:04;17.27;;;13.50;;
1164;SDS011;571;50.930;6.926;2023-01-28T12:28:47;19.13;;;14.30;;
1164;SDS011;571;50.930;6.926;2023-01-28T12:31:42;16.37;;;14.10;;
1164;SDS011;571;50.930;6.926;2023-01-28T12:34:33;16.90;;;14.23;;
1164;SDS011;571;50.930;6.926;2023-01-28T12:37:14;20.97;;;13.77;;
1164;SDS011;571;50.930;6.926;2023-01-28T12:39:54;17.40;;;14.77;;
1164;SDS011;571;50.930;6.926;2023-01-28T12:42:32;18.60;;;15.10;;
1164;SDS011;571;50.930;6.926;2023-01-28T12:45:04;16.10;;;14.50;;
1164;SDS011;571;50.930;6.926;2023-01-28T12:47:42;18.00;;;15.27;;
1164;SDS011;571;50.930;6.926;2023-01-28T12:50:15;18.00;;;14.80;;
1164;SDS011;571;50.930;6.926;2023-01-28T12:52:46;19.10;;;15.10;;
1164;SDS011;571;50.930;6.926;2023-01-28T12:55:19;24.13;;;14.83;;
1164;SDS011;571;50.930;6.926;2023-01-28T12:57:52;16.27;;;13.10;;
1164;SDS011;571;50.930;6.926;2023-01-28T13:00:24;17.13;;;14.73;;
1164;SDS011;571;50.930;6.926;2023-01-28T13:02:56;17.53;;;14.40;;
1164;SDS011;571;50.930;6.926;2023-01-28T13:05:37;14.70;;;13.30;;
1164;SDS011;571;50.930;6.926;2023-01-28T13:08:09;21.13;;;13.80;;
1164;SDS011;571;50.930;6.926;2023-01-28T13:10:43;19.37;;;15.20;;
1164;SDS011;571;50.930;6.926;2023-01-28T13:13:12;20.47;;;16.10;;
1164;SDS011;571;50.930;6.926;2023-01-28T13:15:43;19.27;;;15.17;;
1164;SDS011;571;50.930;6.926;2023-01-28T13:20:56;16.47;;;14.63;;
1164;SDS011;571;50.930;6.926;2023-01-28T13:23:23;16.50;;;13.43;;
1164;SDS011;571;50.930;6.926;2023-01-28T13:25:53;16.93;;;14.60;;
1164;SDS011;571;50.930;6.926;2023-01-28T13:28:25;16.50;;;12.13;;
1164;SDS011;571;50.930;6.926;2023-01-28T13:30:59;15.93;;;13.10;;
1164;SDS011;571;50.930;6.926;2023-01-28T13:33:28;17.83;;;13.97;;
1164;SDS011;571;50.930;6.926;2023-01-28T13:35:57;16.03;;;14.30;;
1164;SDS011;571;50.930;6.926;2023-01-28T13:38:32;17.60;;;14.20;;
1164;SDS011;571;50.930;6.926;2023-01-28T13:41:00;17.57;;;12.50;;
1164;SDS011;571;50.930;6.926;2023-01-28T13:43:34;20.00;;;13.50;;
1164;SDS011;571;50.930;6.926;2023-01-28T13:46:03;17.23;;;15.17;;
1164;SDS011;571;50.930;6.926;2023-01-28T13:48:32;19.03;;;14.80;;
1164;SDS011;571;50.930;6.926;2023-01-28T13:51:17;17.70;;;15.40;;
1164;SDS011;571;50.930;6.926;2023-01-28T13:53:49;21.23;;;15.57;;
1164;SDS011;571;50.930;6.926;2023-01-28T13:56:25;16.07;;;14.37;;
1164;SDS011;571;50.930;6.926;2023-01-28T13:59:09;19.40;;;15.90;;
1164;SDS011;571;50.930;6.926;2023-01-28T14:02:06;18.00;;;16.10;;
1164;SDS011;571;50.930;6.926;2023-01-28T14:08:26;23.00;;;16.10;;
1164;SDS011;571;50.930;6.926;2023-01-28T14:11:15;21.97;;;15.70;;
1164;SDS011;571;50.930;6.926;2023-01-28T14:14:01;18.00;;;14.83;;
1164;SDS011;571;50.930;6.926;2023-01-28T14:16:51;17.10;;;13.90;;
1164;SDS011;571;50.930;6.926;2023-01-28T14:19:25;14.57;;;13.03;;
1164;SDS011;571;50.930;6.926;2023-01-28T14:21:54;17.27;;;13.73;;
1164;SDS011;571;50.930;6.926;2023-01-28T14:24:21;17.27;;;14.73;;
1164;SDS011;571;50.930;6.926;2023-01-28T14:26:53;16.80;;;13.90;;
1164;SDS011;571;50.930;6.926;2023-01-28T14:29:41;19.97;;;14.30;;
1164;SDS011;571;50.930;6.926;2023-01-28T14:32:15;18.80;;;14.37;;
1164;SDS011;571;50.930;6.926;2023-01-28T14:34:43;18.23;;;14.17;;
1164;SDS011;571;50.930;6.926;2023-01-28T14:37:12;19.50;;;13.97;;
1164;SDS011;571;50.930;6.926;2023-01-28T14:39:41;20.17;;;15.70;;
1164;SDS011;571;50.930;6.926;2023-01-28T14:42:13;17.33;;;13.07;;
1164;SDS011;571;50.930;6.926;2023-01-28T14:44:45;18.90;;;14.57;;
1164;SDS011;571;50.930;6.926;2023-01-28T14:47:23;18.53;;;15.13;;
1164;SDS011;571;50.930;6.926;2023-01-28T14:50:02;18.40;;;14.97;;
1164;SDS011;571;50.930;6.926;2023-01-28T14:52:52;20.30;;;15.27;;
1164;SDS011;571;50.930;6.926;2023-01-28T14:55:33;21.07;;;14.67;;
1164;SDS011;571;50.930;6.926;2023-01-28T14:58:08;18.53;;;14.47;;
1164;SDS011;571;50.930;6.926;2023-01-28T15:00:39;18.40;;;14.67;;
1164;SDS011;571;50.930;6.926;2023-01-28T15:03:07;19.63;;;15.30;;
1164;SDS011;571;50.930;6.926;2023-01-28T15:05:45;22.13;;;15.30;;
1164;SDS011;571;50.930;6.926;2023-01-28T15:08:18;17.50;;;13.63;;
1164;SDS011;571;50.930;6.926;2023-01-28T15:10:45;16.70;;;14.90;;
1164;SDS011;571;50.930;6.926;2023-01-28T15:13:16;17.87;;;14.50;;
1164;SDS011;571;50.930;6.926;2023-01-28T15:15:50;15.20;;;13.20;;
1164;SDS011;571;50.930;6.926;2023-01-28T15:18:24;16.30;;;13.27;;
1164;SDS011;571;50.930;6.926;2023-01-28T15:20:55;16.37;;;13.33;;
1164;SDS011;571;50.930;6.926;2023-01-28T15:23:24;21.37;;;15.33;;
1164;SDS011;571;50.930;6.926;2023-01-28T15:25:52;18.30;;;14.57;;
1164;SDS011;571;50.930;6.926;2023-01-28T15:28:24;18.73;;;14.70;;
1164;SDS011;571;50.930;6.926;2023-01-28T15:30:53;18.83;;;14.53;;
1164;SDS011;571;50.930;6.926;2023-01-28T15:33:20;19.90;;;15.80;;
1164;SDS011;571;50.930;6.926;2023-01-28T15:35:48;20.17;;;14.23;;
1164;SDS011;571;50.930;6.926;2023-01-28T15:38:16;19.80;;;15.27;;
1164;SDS011;571;50.930;6.926;2023-01-28T15:40:44;20.80;;;16.10;;
1164;SDS011;571;50.930;6.926;2023-01-28T15:43:14;18.97;;;15.93;;
1164;SDS011;571;50.930;6.926;2023-01-28T15:45:46;20.33;;;15.83;;
1164;SDS011;571;50.930;6.926;2023-01-28T15:48:14;25.80;;;17.03;;
1164;SDS011;571;50.930;6.926;2023-01-28T15:50:41;20.53;;;17.03;;
1164;SDS011;571;50.930;6.926;2023-01-28T15:53:09;19.67;;;15.17;;
1164;SDS011;571;50.930;6.926;2023-01-28T15:55:38;22.50;;;16.50;;
1164;SDS011;571;50.930;6.926;2023-01-28T15:58:20;19.97;;;15.73;;
1164;SDS011;571;50.930;6.926;2023-01-28T16:01:07;20.20;;;15.47;;
1164;SDS011;571;50.930;6.926;2023-01-28T16:04:00;19.07;;;15.00;;
1164;SDS011;571;50.930;6.926;2023-01-28T16:06:30;18.40;;;15.40;;
1164;SDS011;571;50.930;6.926;2023-01-28T16:09:02;23.50;;;14.80;;
1164;SDS011;571;50.930;6.926;2023-01-28T16:11:31;22.07;;;16.17;;
1164;SDS011;571;50.930;6.926;2023-01-28T16:14:01;22.70;;;17.10;;
1164;SDS011;571;50.930;6.926;2023-01-28T16:16:31;21.80;;;16.83;;
1164;SDS011;571;50.930;6.926;2023-01-28T16:18:59;20.27;;;16.57;;
1164;SDS011;571;50.930;6.926;2023-01-28T16:21:28;24.33;;;18.43;;
1164;SDS011;571;50.930;6.926;2023-01-28T16:23:59;21.90;;;17.57;;
1164;SDS011;571;50.930;6.926;2023-01-28T16:26:28;27.07;;;18.70;;
1164;SDS011;571;50.930;6.926;2023-01-28T16:28:59;22.30;;;15.17;;
1164;SDS011;571;50.930;6.926;2023-01-28T16:31:38;25.90;;;17.57;;
1164;SDS011;571;50.930;6.926;2023-01-28T16:34:06;24.53;;;18.17;;
1164;SDS011;571;50.930;6.926;2023-01-28T16:36:34;24.77;;;18.70;;
1164;SDS011;571;50.930;6.926;2023-01-28T16:39:01;23.53;;;17.03;;
1164;SDS011;571;50.930;6.926;2023-01-28T16:41:28;29.17;;;19.30;;
1164;SDS011;571;50.930;6.926;2023-01-28T16:43:59;25.50;;;18.37;;
1164;SDS011;571;50.930;6.926;2023-01-28T16:46:29;25.80;;;20.17;;
1164;SDS011;571;50.930;6.926;2023-01-28T16:48:58;25.43;;;17.73;;
1164;SDS011;571;50.930;6.926;2023-01-28T16:51:46;25.60;;;19.50;;
1164;SDS011;571;50.930;6.926;2023-01-28T16:54:14;26.83;;;19.03;;
1164;SDS011;571;50.930;6.926;2023-01-28T16:56:42;31.53;;;21.13;;
1164;SDS011;571;50.930;6.926;2023-01-28T16:59:09;29.80;;;19.53;;
1164;SDS011;571;50.930;6.926;2023-01-28T17:02:04;28.23;;;18.70;;
1164;SDS011;571;50.930;6.926;2023-01-28T17:04:34;31.23;;;22.17;;
1164;SDS011;571;50.930;6.926;2023-01-28T17:07:01;26.37;;;20.57;;
1164;SDS011;571;50.930;6.926;2023-01-28T17:09:32;26.13;;;19.50;;
1164;SDS011;571;50.930;6.926;2023-01-28T17:12:00;28.40;;;20.60;;
1164;SDS011;571;50.930;6.926;2023-01-28T17:14:28;27.87;;;19.70;;
1164;SDS011;571;50.930;6.926;2023-01-28T17:16:57;32.83;;;20.33;;
1164;SDS011;571;50.930;6.926;2023-01-28T17:19:24;29.13;;;19.93;;
1164;SDS011;571;50.930;6.926;2023-01-28T17:21:52;29.03;;;21.50;;
1164;SDS011;571;50.930;6.926;2023-01-28T17:24:19;28.60;;;19.53;;
1164;SDS011;571;50.930;6.926;2023-01-28T17:26:46;25.17;;;19.97;;
1164;SDS011;571;50.930;6.926;2023-01-28T17:29:16;28.17;;;19.70;;
1164;SDS011;571;50.930;6.926;2023-01-28T17:31:43;26.03;;;19.70;;
1164;SDS011;571;50.930;6.926;2023-01-28T17:34:10;22.80;;;19.00;;
1164;SDS011;571;50.930;6.926;2023-01-28T17:36:38;24.83;;;20.23;;
1164;SDS011;571;50.930;6.926;2023-01-28T17:39:07;28.23;;;20.07;;
1164;SDS011;571;50.930;6.926;2023-01-28T17:41:34;27.50;;;19.90;;
1164;SDS011;571;50.930;6.926;2023-01-28T17:44:02;32.00;;;21.50;;
1164;SDS011;571;50.930;6.926;2023-01-28T17:46:30;31.50;;;21.20;;
1164;SDS011;571;50.930;6.926;2023-01-28T17:48:57;26.57;;;20.30;;
1164;SDS011;571;50.930;6.926;2023-01-28T17:51:24;27.00;;;21.47;;
1164;SDS011;571;50.930;6.926;2023-01-28T17:53:51;27.67;;;21.30;;
1164;SDS011;571;50.930;6.926;2023-01-28T17:56:20;32.37;;;22.10;;
1164;SDS011;571;50.930;6.926;2023-01-28T17:58:49;34.00;;;20.63;;
1164;SDS011;571;50.930;6.926;2023-01-28T18:01:17;27.53;;;21.73;;
1164;SDS011;571;50.930;6.926;2023-01-28T18:03:44;33.53;;;22.20;;
1164;SDS011;571;50.930;6.926;2023-01-28T18:06:11;24.53;;;19.90;;
1164;SDS011;571;50.930;6.926;2023-01-28T18:08:38;28.97;;;22.17;;
1164;SDS011;571;50.930;6.926;2023-01-28T18:11:05;29.17;;;21.10;;
1164;SDS011;571;50.930;6.926;2023-01-28T18:13:35;30.53;;;22.10;;
1164;SDS011;571;50.930;6.926;2023-01-28T18:16:02;30.93;;;23.07;;
1164;SDS011;571;50.930;6.926;2023-01-28T18:18:30;34.23;;;23.70;;
1164;SDS011;571;50.930;6.926;2023-01-28T18:20:57;32.17;;;23.23;;
1164;SDS011;571;50.930;6.926;2023-01-28T18:23:24;30.00;;;22.93;;
1164;SDS011;571;50.930;6.926;2023-01-28T18:25:54;26.57;;;21.80;;
1164;SDS011;571;50.930;6.926;2023-01-28T18:28:21;31.07;;;21.80;;
1164;SDS011;571;50.930;6.926;2023-01-28T18:30:49;27.40;;;22.67;;
1164;SDS011;571;50.930;6.926;2023-01-28T18:33:16;30.48;;;21.23;;
1164;SDS011;571;50.930;6.926;2023-01-28T18:35:43;29.30;;;22.20;;
1164;SDS011;571;50.930;6.926;2023-01-28T18:38:10;29.97;;;22.10;;
1164;SDS011;571;50.930;6.926;2023-01-28T18:40:41;32.20;;;23.87;;
1164;SDS011;571;50.930;6.926;2023-01-28T18:43:08;36.90;;;26.20;;
1164;SDS011;571;50.930;6.926;2023-01-28T18:45:36;36.30;;;25.73;;
1164;SDS011;571;50.930;6.926;2023-01-28T18:48:06;36.57;;;26.17;;
1164;SDS011;571;50.930;6.926;2023-01-28T18:50:33;35.67;;;25.40;;
1164;SDS011;571;50.930;6.926;2023-01-28T18:53:00;40.27;;;24.80;;
1164;SDS011;571;50.930;6.926;2023-01-28T18:55:27;35.60;;;25.13;;
1164;SDS011;571;50.930;6.926;2023-01-28T18:57:54;37.57;;;27.63;;
1164;SDS011;571;50.930;6.926;2023-01-28T19:00:21;36.53;;;26.90;;
1164;SDS011;571;50.930;6.926;2023-01-28T19:02:47;38.17;;;26.87;;
1164;SDS011;571;50.930;6.926;2023-01-28T19:05:16;38.27;;;27.07;;
1164;SDS011;571;50.930;6.926;2023-01-28T19:07:42;35.70;;;26.63;;
1164;SDS011;571;50.930;6.926;2023-01-28T19:10:09;46.42;;;27.27;;
1164;SDS011;571;50.930;6.926;2023-01-28T19:12:36;46.15;;;30.73;;
1164;SDS011;571;50.930;6.926;2023-01-28T19:15:03;34.85;;;27.63;;
1164;SDS011;571;50.930;6.926;2023-01-28T19:17:30;38.47;;;29.77;;
1164;SDS011;571;50.930;6.926;2023-01-28T19:19:57;39.53;;;27.43;;
1164;SDS011;571;50.930;6.926;2023-01-28T19:22:25;38.60;;;28.37;;
1164;SDS011;571;50.930;6.926;2023-01-28T19:24:52;41.88;;;27.92;;
1164;SDS011;571;50.930;6.926;2023-01-28T19:27:19;42.63;;;30.90;;